createdAt,value
2022-09-09T00:03:20.821Z,10.10
2022-09-09T00:06:29.446Z,9.70
2022-09-09T00:09:47.155Z,10.55
2022-09-09T00:13:08.479Z,9.20
2022-09-09T00:16:20.495Z,10.55
2022-09-09T00:19:46.718Z,9.68
2022-09-09T00:23:26.925Z,9.30
2022-09-09T00:26:43.620Z,8.95
2022-09-09T00:29:47.842Z,9.63
2022-09-09T00:32:55.110Z,9.20
2022-09-09T00:35:59.456Z,9.77
2022-09-09T00:39:03.056Z,10.07
2022-09-09T00:42:39.110Z,9.38
2022-09-09T00:46:24.904Z,10.95
2022-09-09T00:49:38.742Z,9.55
2022-09-09T00:53:08.652Z,9.68
2022-09-09T00:56:22.641Z,9.20
2022-09-09T00:59:47.678Z,9.27
2022-09-09T01:03:38.629Z,8.20
2022-09-09T01:06:41.743Z,9.80
2022-09-09T01:09:52.510Z,8.38
2022-09-09T01:12:59.676Z,7.90
2022-09-09T01:16:04.246Z,8.07
2022-09-09T01:19:11.873Z,8.30
2022-09-09T01:22:31.670Z,7.75
2022-09-09T01:25:57.988Z,8.50
2022-09-09T01:29:00.148Z,7.93
2022-09-09T01:32:24.316Z,7.28
2022-09-09T01:35:43.126Z,8.20
2022-09-09T01:38:45.224Z,7.47
2022-09-09T01:41:47.185Z,8.15
2022-09-09T01:44:49.327Z,7.93
2022-09-09T01:47:53.647Z,7.53
2022-09-09T01:50:55.737Z,8.25
2022-09-09T01:53:57.566Z,7.70
2022-09-09T01:57:17.528Z,7.85
2022-09-09T02:00:19.495Z,8.13
2022-09-09T02:03:27.968Z,7.63
2022-09-09T02:06:41.398Z,8.20
2022-09-09T02:09:48.177Z,7.50
2022-09-09T02:13:02.217Z,7.43
2022-09-09T02:16:14.886Z,7.93
2022-09-09T02:19:28.402Z,7.47
2022-09-09T02:22:32.281Z,7.93
2022-09-09T02:25:36.861Z,9.25
2022-09-09T02:28:39.971Z,7.68
2022-09-09T02:31:44.793Z,8.48
2022-09-09T02:34:50.814Z,7.65
2022-09-09T02:37:55.923Z,7.75
2022-09-09T02:40:59.169Z,7.88
2022-09-09T02:44:01.623Z,7.88
2022-09-09T02:47:29.651Z,7.72
2022-09-09T02:50:44.789Z,7.63
2022-09-09T02:54:17.861Z,7.40
2022-09-09T02:57:26.284Z,6.82
2022-09-09T03:00:29.192Z,7.97
2022-09-09T03:03:31.416Z,7.22
2022-09-09T03:06:33.608Z,6.75
2022-09-09T03:09:35.465Z,7.15
2022-09-09T03:12:37.486Z,8.05
2022-09-09T03:15:39.410Z,8.55
2022-09-09T03:18:41.556Z,7.20
2022-09-09T03:21:43.499Z,8.93
2022-09-09T03:24:47.665Z,7.82
2022-09-09T03:27:49.909Z,8.25
2022-09-09T03:30:52.079Z,7.70
2022-09-09T03:33:53.965Z,8.18
2022-09-09T03:36:56.511Z,7.88
2022-09-09T03:39:58.482Z,6.90
2022-09-09T03:43:00.597Z,6.15
2022-09-09T03:46:02.735Z,6.28
2022-09-09T03:49:05.063Z,8.00
2022-09-09T03:52:06.909Z,7.15
2022-09-09T03:55:09.714Z,7.40
2022-09-09T03:58:11.808Z,7.10
2022-09-09T04:01:14.910Z,7.43
2022-09-09T04:04:16.858Z,7.10
2022-09-09T04:07:18.886Z,7.28
2022-09-09T04:10:22.057Z,7.53
2022-09-09T04:13:24.712Z,9.75
2022-09-09T04:16:27.030Z,9.80
2022-09-09T04:19:29.160Z,7.33
2022-09-09T04:22:31.545Z,8.90
2022-09-09T04:25:34.925Z,6.60
2022-09-09T04:28:38.184Z,8.85
2022-09-09T04:31:42.937Z,6.53
2022-09-09T04:34:45.934Z,7.40
2022-09-09T04:37:48.917Z,6.88
2022-09-09T04:40:55.299Z,7.28
2022-09-09T04:43:57.346Z,6.93
2022-09-09T04:46:59.201Z,8.15
2022-09-09T04:50:01.606Z,11.02
2022-09-09T04:53:05.815Z,13.35
2022-09-09T04:56:13.537Z,16.33
2022-09-09T04:59:15.388Z,24.77
2022-09-09T05:02:17.584Z,37.72
2022-09-09T05:05:20.778Z,54.55
2022-09-09T05:08:23.921Z,43.53
2022-09-09T05:11:28.341Z,67.50
2022-09-09T05:14:31.076Z,41.30
2022-09-09T05:17:33.613Z,61.10
2022-09-09T05:20:35.816Z,39.22
2022-09-09T05:23:37.998Z,23.13
2022-09-09T05:26:40.137Z,12.25
2022-09-09T05:29:44.353Z,16.08
2022-09-09T05:32:46.442Z,13.02
2022-09-09T05:35:48.331Z,20.67
2022-09-09T05:38:50.955Z,24.52
2022-09-09T05:41:52.885Z,9.18
2022-09-09T05:44:55.377Z,12.43
2022-09-09T05:47:58.214Z,11.07
2022-09-09T05:51:00.916Z,9.00
2022-09-09T05:54:02.898Z,8.57
2022-09-09T05:57:05.030Z,9.20
2022-09-09T06:00:07.588Z,8.85
2022-09-09T06:03:12.599Z,7.90
2022-09-09T06:06:18.565Z,8.07
2022-09-09T06:09:21.075Z,8.75
2022-09-09T06:12:22.929Z,8.23
2022-09-09T06:15:25.068Z,8.20
2022-09-09T06:18:27.393Z,7.03
2022-09-09T06:21:34.712Z,8.07
2022-09-09T06:24:36.914Z,7.22
2022-09-09T06:27:38.966Z,7.30
2022-09-09T06:30:41.178Z,7.60
2022-09-09T06:33:43.384Z,7.88
2022-09-09T06:36:46.827Z,9.90
2022-09-09T06:39:49.363Z,8.18
2022-09-09T06:42:52.154Z,6.88
2022-09-09T06:45:58.261Z,6.60
2022-09-09T06:49:00.907Z,7.18
2022-09-09T06:52:02.987Z,6.20
2022-09-09T06:55:05.798Z,6.13
2022-09-09T06:58:10.683Z,6.20
2022-09-09T07:01:14.855Z,6.07
2022-09-09T07:04:17.119Z,5.65
2022-09-09T07:07:19.032Z,5.30
2022-09-09T07:10:23.025Z,6.47
2022-09-09T07:13:26.568Z,4.90
2022-09-09T07:16:30.483Z,5.03
2022-09-09T07:19:32.671Z,4.68
2022-09-09T07:22:34.706Z,4.60
2022-09-09T07:25:36.903Z,4.63
2022-09-09T07:28:39.198Z,4.65
2022-09-09T07:31:41.273Z,5.13
2022-09-09T07:34:43.728Z,5.07
2022-09-09T07:37:50.296Z,5.30
2022-09-09T07:40:53.154Z,4.93
2022-09-09T07:43:55.580Z,5.40
2022-09-09T07:46:57.768Z,5.97
2022-09-09T07:49:59.846Z,4.78
2022-09-09T07:53:03.434Z,4.05
2022-09-09T07:56:07.653Z,4.47
2022-09-09T07:59:11.355Z,4.38
2022-09-09T08:02:13.225Z,4.40
2022-09-09T08:05:16.027Z,5.30
2022-09-09T08:08:17.930Z,5.13
2022-09-09T08:11:20.647Z,4.85
2022-09-09T08:14:24.053Z,4.70
2022-09-09T08:17:26.193Z,4.65
2022-09-09T08:20:28.886Z,4.80
2022-09-09T08:23:31.654Z,4.72
2022-09-09T08:26:39.349Z,4.38
2022-09-09T08:29:41.508Z,3.92
2022-09-09T08:32:45.950Z,3.80
2022-09-09T08:35:53.810Z,4.03
2022-09-09T08:38:58.028Z,6.05
2022-09-09T08:42:03.427Z,3.47
2022-09-09T08:45:45.546Z,3.75
2022-09-09T08:49:03.393Z,4.72
2022-09-09T08:52:14.143Z,6.25
2022-09-09T08:55:28.778Z,4.82
2022-09-09T08:58:35.453Z,4.93
2022-09-09T09:02:17.079Z,6.13
2022-09-09T09:05:42.845Z,4.88
2022-09-09T09:09:05.856Z,5.30
2022-09-09T09:12:20.641Z,4.88
2022-09-09T09:15:29.515Z,4.43
2022-09-09T09:18:34.948Z,4.82
2022-09-09T09:21:56.505Z,5.25
2022-09-09T09:25:12.623Z,4.70
2022-09-09T09:28:18.869Z,4.57
2022-09-09T09:31:21.758Z,4.07
2022-09-09T09:34:25.368Z,4.10
2022-09-09T09:37:31.208Z,4.40
2022-09-09T09:40:35.376Z,3.10
2022-09-09T09:43:43.481Z,3.17
2022-09-09T09:46:45.798Z,4.85
2022-09-09T09:49:54.853Z,3.10
2022-09-09T09:53:03.111Z,3.38
2022-09-09T09:56:15.858Z,2.90
2022-09-09T09:59:40.087Z,3.38
2022-09-09T10:02:45.028Z,2.70
2022-09-09T10:05:48.012Z,3.42
2022-09-09T10:08:50.089Z,2.55
2022-09-09T10:12:04.721Z,2.47
2022-09-09T10:15:31.249Z,2.85
2022-09-09T10:19:07.607Z,2.70
2022-09-09T10:22:18.308Z,2.97
2022-09-09T10:25:51.830Z,3.40
2022-09-09T10:29:23.407Z,3.10
2022-09-09T10:33:03.691Z,2.72
2022-09-09T10:36:14.729Z,3.20
2022-09-09T10:39:19.701Z,5.13
2022-09-09T10:42:31.824Z,4.65
2022-09-09T10:45:45.478Z,2.83
2022-09-09T10:49:11.734Z,2.53
2022-09-09T10:52:49.287Z,4.32
2022-09-09T10:56:07.447Z,2.75
2022-09-09T10:59:23.604Z,2.80
2022-09-09T11:02:33.882Z,2.20
2022-09-09T11:05:46.536Z,2.30
2022-09-09T11:08:52.719Z,2.28
2022-09-09T11:11:58.803Z,1.80
2022-09-09T11:15:23.023Z,3.10
2022-09-09T11:18:25.737Z,3.28
2022-09-09T11:21:37.390Z,1.77
2022-09-09T11:24:44.929Z,3.22
2022-09-09T11:28:05.604Z,2.67
2022-09-09T11:31:35.437Z,1.40
2022-09-09T11:34:50.490Z,2.00
2022-09-09T11:38:10.430Z,1.92
2022-09-09T11:41:16.108Z,10.45
2022-09-09T11:44:31.041Z,1.55
2022-09-09T11:47:33.016Z,2.53
2022-09-09T11:50:37.451Z,3.58
2022-09-09T11:54:03.574Z,2.10
2022-09-09T11:57:16.136Z,2.47
2022-09-09T12:00:45.673Z,1.85
2022-09-09T12:03:52.452Z,1.30
2022-09-09T12:07:06.852Z,1.55
2022-09-09T12:10:32.553Z,2.17
2022-09-09T12:13:34.983Z,2.67
2022-09-09T12:16:39.570Z,3.17
2022-09-09T12:19:41.765Z,3.35
2022-09-09T12:22:46.930Z,2.92
2022-09-09T12:26:13.023Z,2.90
2022-09-09T12:29:24.143Z,2.72
2022-09-09T12:32:27.944Z,2.30
2022-09-09T12:35:32.199Z,1.35
2022-09-09T12:38:40.196Z,2.47
2022-09-09T12:41:42.343Z,4.22
2022-09-09T12:44:58.114Z,1.65
2022-09-09T12:48:04.428Z,2.15
2022-09-09T12:51:22.193Z,3.15
2022-09-09T12:54:24.554Z,11.40
2022-09-09T12:57:31.063Z,2.00
2022-09-09T13:00:34.986Z,1.20
2022-09-09T13:03:44.023Z,5.97
2022-09-09T13:06:46.154Z,2.30
2022-09-09T13:09:49.897Z,1.88
2022-09-09T13:12:52.057Z,2.55
2022-09-09T13:15:57.292Z,3.40
2022-09-09T13:19:18.287Z,2.25
2022-09-09T13:22:36.658Z,1.38
2022-09-09T13:25:43.641Z,2.10
2022-09-09T13:28:47.447Z,1.90
2022-09-09T13:31:53.684Z,3.20
2022-09-09T13:35:00.770Z,2.05
2022-09-09T13:38:12.770Z,3.20
2022-09-09T13:41:22.545Z,2.75
2022-09-09T13:44:39.899Z,4.30
2022-09-09T13:47:43.009Z,1.42
2022-09-09T13:50:58.944Z,3.15
2022-09-09T13:54:01.464Z,2.38
2022-09-09T13:57:05.444Z,1.95
2022-09-09T14:00:11.079Z,3.53
2022-09-09T14:03:13.475Z,2.88
2022-09-09T14:06:15.463Z,2.60
2022-09-09T14:09:19.193Z,3.17
2022-09-09T14:12:21.167Z,4.55
2022-09-09T14:15:23.386Z,3.05
2022-09-09T14:18:26.374Z,1.42
2022-09-09T14:21:29.034Z,2.97
2022-09-09T14:24:30.976Z,3.10
2022-09-09T14:27:33.581Z,3.90
2022-09-09T14:30:35.819Z,3.42
2022-09-09T14:33:38.018Z,2.95
2022-09-09T14:36:39.843Z,3.10
2022-09-09T14:39:41.954Z,1.88
2022-09-09T14:42:43.834Z,1.52
2022-09-09T14:45:45.918Z,2.70
2022-09-09T14:48:51.006Z,5.93
2022-09-09T14:51:53.105Z,1.98
2022-09-09T14:54:55.075Z,1.75
2022-09-09T14:57:57.126Z,2.33
2022-09-09T15:01:07.693Z,1.83
2022-09-09T15:04:15.586Z,5.72
2022-09-09T15:07:20.334Z,1.38
2022-09-09T15:10:22.465Z,1.77
2022-09-09T15:13:24.327Z,1.23
2022-09-09T15:16:28.671Z,1.95
2022-09-09T15:19:30.924Z,2.83
2022-09-09T15:22:33.507Z,2.45
2022-09-09T15:25:35.435Z,2.58
2022-09-09T15:28:39.101Z,1.92
2022-09-09T15:31:41.132Z,1.65
2022-09-09T15:34:43.323Z,1.40
2022-09-09T15:37:46.236Z,1.98
2022-09-09T15:40:55.949Z,2.20
2022-09-09T15:43:58.332Z,2.55
2022-09-09T15:47:00.636Z,2.70
2022-09-09T15:50:02.598Z,4.22
2022-09-09T15:53:05.048Z,3.40
2022-09-09T15:56:09.873Z,3.20
2022-09-09T15:59:12.459Z,2.65
2022-09-09T16:02:14.523Z,3.50
2022-09-09T16:05:18.651Z,3.72
2022-09-09T16:08:20.625Z,2.10
2022-09-09T16:11:24.076Z,2.28
2022-09-09T16:14:26.640Z,3.95
2022-09-09T16:17:28.764Z,2.55
2022-09-09T16:20:31.147Z,3.95
2022-09-09T16:23:33.972Z,5.53
2022-09-09T16:26:39.752Z,4.45
2022-09-09T16:29:42.097Z,7.93
2022-09-09T16:32:43.968Z,3.72
2022-09-09T16:35:46.289Z,3.78
2022-09-09T16:38:48.455Z,3.47
2022-09-09T16:41:50.813Z,5.05
2022-09-09T16:44:52.962Z,4.38
2022-09-09T16:47:55.003Z,3.72
2022-09-09T16:51:06.109Z,8.15
2022-09-09T16:54:09.713Z,6.05
2022-09-09T16:57:11.596Z,5.15
2022-09-09T17:00:13.692Z,2.90
2022-09-09T17:03:15.919Z,4.05
2022-09-09T17:06:17.941Z,4.90
2022-09-09T17:09:20.996Z,3.42
2022-09-09T17:12:23.185Z,4.35
2022-09-09T17:15:25.117Z,6.05
2022-09-09T17:18:29.216Z,8.20
2022-09-09T17:21:32.414Z,7.05
2022-09-09T17:24:35.317Z,8.68
2022-09-09T17:27:37.157Z,6.45
2022-09-09T17:30:39.291Z,6.65
2022-09-09T17:33:44.351Z,5.13
2022-09-09T17:36:46.413Z,3.88
2022-09-09T17:39:48.492Z,3.75
2022-09-09T17:42:50.700Z,6.30
2022-09-09T17:45:54.088Z,3.30
2022-09-09T17:48:58.857Z,7.60
2022-09-09T17:52:00.744Z,4.30
2022-09-09T17:55:03.013Z,5.20
2022-09-09T17:58:04.967Z,5.90
2022-09-09T18:01:10.781Z,6.45
2022-09-09T18:04:14.969Z,6.05
2022-09-09T18:07:17.092Z,8.38
2022-09-09T18:10:18.957Z,11.48
2022-09-09T18:13:21.507Z,13.35
2022-09-09T18:16:24.866Z,12.45
2022-09-09T18:19:30.647Z,8.65
2022-09-09T18:22:33.749Z,9.30
2022-09-09T18:25:40.309Z,9.20
2022-09-09T18:28:44.065Z,8.23
2022-09-09T18:31:47.789Z,7.05
2022-09-09T18:34:55.376Z,13.77
2022-09-09T18:37:57.752Z,8.15
2022-09-09T18:41:00.111Z,11.40
2022-09-09T18:44:10.279Z,11.40
2022-09-09T18:47:12.217Z,12.48
2022-09-09T18:50:15.083Z,8.45
2022-09-09T18:53:17.038Z,5.97
2022-09-09T18:56:19.689Z,7.72
2022-09-09T18:59:23.762Z,12.90
2022-09-09T19:02:25.897Z,11.85
2022-09-09T19:05:27.736Z,6.70
2022-09-09T19:08:30.233Z,9.05
2022-09-09T19:11:32.279Z,10.05
2022-09-09T19:14:34.668Z,9.13
2022-09-09T19:17:36.534Z,10.13
2022-09-09T19:20:38.797Z,8.48
2022-09-09T19:23:41.774Z,12.05
2022-09-09T19:26:48.391Z,7.82
2022-09-09T19:29:53.972Z,6.68
2022-09-09T19:32:59.086Z,7.85
2022-09-09T19:36:08.581Z,11.55
2022-09-09T19:39:11.117Z,7.38
2022-09-09T19:42:13.167Z,8.93
2022-09-09T19:45:15.224Z,7.32
2022-09-09T19:48:17.972Z,10.70
2022-09-09T19:51:21.952Z,9.32
2022-09-09T19:54:23.806Z,11.30
2022-09-09T19:57:30.244Z,9.65
2022-09-09T20:00:34.440Z,10.43
2022-09-09T20:03:38.154Z,12.65
2022-09-09T20:06:42.521Z,9.90
2022-09-09T20:09:44.589Z,11.93
2022-09-09T20:12:46.516Z,13.52
2022-09-09T20:15:59.096Z,12.25
2022-09-09T20:19:03.750Z,17.67
2022-09-09T20:22:06.236Z,12.55
2022-09-09T20:25:08.596Z,10.00
2022-09-09T20:28:10.840Z,12.52
2022-09-09T20:31:21.491Z,12.77
2022-09-09T20:34:25.774Z,13.30
2022-09-09T20:37:27.785Z,8.80
2022-09-09T20:40:33.394Z,11.27
2022-09-09T20:43:35.403Z,8.63
2022-09-09T20:46:39.296Z,9.00
2022-09-09T20:49:41.165Z,11.05
2022-09-09T20:52:43.216Z,7.60
2022-09-09T20:55:45.059Z,9.55
2022-09-09T20:58:47.342Z,7.72
2022-09-09T21:01:50.380Z,8.85
2022-09-09T21:04:52.601Z,8.90
2022-09-09T21:07:56.801Z,5.88
2022-09-09T21:10:59.199Z,7.60
2022-09-09T21:14:01.985Z,8.68
2022-09-09T21:17:04.195Z,6.70
2022-09-09T21:20:06.831Z,11.10
2022-09-09T21:23:10.064Z,7.82
2022-09-09T21:26:12.949Z,20.98
2022-09-09T21:29:15.253Z,12.65
2022-09-09T21:32:17.944Z,14.75
2022-09-09T21:35:19.991Z,12.13
2022-09-09T21:38:24.738Z,9.98
2022-09-09T21:41:26.979Z,14.60
2022-09-09T21:44:29.013Z,13.52
2022-09-09T21:47:31.079Z,12.20
2022-09-09T21:50:44.271Z,9.95
2022-09-09T21:53:46.395Z,11.88
2022-09-09T21:56:50.004Z,8.98
2022-09-09T21:59:52.881Z,8.95
2022-09-09T22:02:54.916Z,8.40
2022-09-09T22:05:57.479Z,8.75
2022-09-09T22:08:59.908Z,8.73
2022-09-09T22:12:02.294Z,9.77
2022-09-09T22:15:05.342Z,7.50
2022-09-09T22:18:07.418Z,7.85
2022-09-09T22:21:18.154Z,8.30
2022-09-09T22:24:20.209Z,7.30
2022-09-09T22:27:22.162Z,9.57
2022-09-09T22:30:24.305Z,8.50
2022-09-09T22:33:27.263Z,6.45
2022-09-09T22:36:29.480Z,6.32
2022-09-09T22:39:31.386Z,5.78
2022-09-09T22:42:33.891Z,7.82
2022-09-09T22:45:35.839Z,5.10
2022-09-09T22:48:39.752Z,5.45
2022-09-09T22:51:41.786Z,7.13
2022-09-09T22:54:45.652Z,3.42
2022-09-09T22:57:48.145Z,2.63
2022-09-09T23:00:51.247Z,3.13
2022-09-09T23:03:55.057Z,3.00
2022-09-09T23:06:57.851Z,1.73
2022-09-09T23:09:59.709Z,1.95
2022-09-09T23:13:01.747Z,3.28
2022-09-09T23:16:18.099Z,4.38
2022-09-09T23:19:21.798Z,3.63
2022-09-09T23:22:24.627Z,2.00
2022-09-09T23:25:27.790Z,4.28
2022-09-09T23:28:35.274Z,2.97
2022-09-09T23:31:37.906Z,1.98
2022-09-09T23:34:40.526Z,2.10
2022-09-09T23:37:44.815Z,2.10
2022-09-09T23:40:47.159Z,2.05
2022-09-09T23:43:50.776Z,2.63
2022-09-09T23:46:52.614Z,3.65
2022-09-09T23:49:54.658Z,3.88
2022-09-09T23:52:57.655Z,4.25
2022-09-09T23:55:59.904Z,2.28
2022-09-09T23:59:01.869Z,3.45
